Latest Coastal Weather Observations for Gold Coast Seaway

IDQ60701

Issued at 5:42 am EST Thursday 27 April 2017 (issued every 10 minutes, with the page automatically refreshed every 10 minutes)

About coastal observations | Map of coastal stations | Coastal observations for QLD | Marine services | Other Formats
Station Details ID: 040764 Name: GOLD COAST SEAWAY Lat: -27.94 Lon: 153.43 Height: 2.98 m
Data from the previous 72 hours. | See also: Recent months at Gold Coast Seaway
Date/Time
EST
Temp
°C
Wind Pressure Rain since
9am
mm
Weather Cloud Vis
km
Sea
Height
m
Swell
Dir  Spd
kts
Gust
kts
hPa Trend Height
m
Period
s
Dir
27/05:30am 15.7 WNW 8 10 1011.4 - 4.8 - - - - - - -
27/05:00am 16.0 WNW 7 10 1011.3 - 4.8 - - - - - - -
27/04:30am 15.9 NW 7 9 1011.3 - 4.8 - - - - - - -
27/04:00am 16.3 NW 8 9 1011.3 - 4.8 - - - - - - -
27/03:30am 16.2 WNW 9 11 1011.1 - 4.8 - - - - - - -
27/03:00am 16.0 W 7 9 1011.2 - 4.8 - - - - - - -
27/02:30am 16.8 W 9 10 1011.5 - 4.8 - - - - - - -
27/02:00am 16.7 WNW 7 8 1011.4 - 4.8 - - - - - - -
27/01:30am 15.3 WNW 6 7 1011.6 - 4.8 - - - - - - -
27/01:00am 16.0 W 5 6 1011.5 - 4.8 - - - - - - -
27/12:30am 17.5 WNW 6 7 1011.3 - 4.8 - - - - - - -
27/12:00am 18.1 NW 5 7 1011.3 - 4.8 - - - - - - -
 
Date/Time
EST
Temp
°C
Wind Pressure Rain since
9am
mm
Weather Cloud Vis
km
Sea
Height
m
Swell
Dir  Spd
kts
Gust
kts
hPa Trend Height
m
Period
s
Dir
26/11:30pm 18.5 W 6 8 1011.0 - 4.8 - - - - - - -
26/11:00pm 19.0 WNW 10 16 1010.9 - 4.8 - - - - - - -
26/10:30pm 19.3 WNW 11 15 1010.4 - 4.8 - - - - - - -
26/10:00pm 19.2 WNW 10 13 1010.6 - 4.8 - - - - - - -
26/09:30pm 19.7 WNW 10 12 1010.6 - 4.8 - - - - - - -
26/09:00pm 20.1 WNW 11 14 1010.5 - 4.8 Recent precip. - - - - - -
26/08:30pm 20.2 NW 11 13 1010.4 - 4.6 - - - - - - -
26/08:00pm 20.3 NW 7 9 1009.9 - 4.6 - - - - - - -
26/07:30pm 20.4 NW 5 7 1009.6 - 4.6 - - - - - - -
26/07:00pm 20.5 NNW 6 7 1009.2 - 4.6 - - - - - - -
26/06:30pm 20.7 WNW 8 10 1009.1 - 4.6 - - - - - - -
26/06:00pm 21.2 W 8 10 1009.0 - 1.8 - - - - - - -
26/05:30pm 21.3 NNW 7 10 1008.4 - 1.8 - - - - - - -
26/05:00pm 21.2 NNW 5 7 1008.2 - 1.8 - - - - - - -
26/04:30pm 21.2 NNW 5 7 1008.2 - 1.8 - - - - - - -
26/04:00pm 21.5 NW 7 9 1008.4 - 1.6 - - - - - - -
26/03:30pm 20.8 NNW 7 9 1008.5 - 1.6 - - - - - - -
26/03:00pm 20.8 NNW 8 10 1008.7 - 1.6 Recent precip. - - - - - -
26/02:30pm 21.1 NW 9 11 1009.1 - 1.4 - - - - - - -
26/02:00pm 20.9 NNW 7 10 1009.1 - 1.4 - - - - - - -
26/01:30pm 21.0 NNW 8 11 1009.4 - 1.4 - - - - - - -
26/01:00pm 20.5 NNW 9 12 1009.8 - 1.4 - - - - - - -
26/12:30pm 20.7 NNW 8 11 1010.6 - 0.8 - - - - - - -
26/12:00pm 21.0 NNW 10 14 1011.0 - 0.6 Rain - - - - - -
26/11:30am 22.2 NW 10 14 1011.3 - 0.0 - - - - - - -
26/11:00am 22.6 NW 13 17 1012.0 - 0.0 - - - - - - -
26/10:30am 22.1 NW 9 13 1012.5 - 0.0 - - - - - - -
26/10:00am 21.5 WNW 15 19 1013.5 - 0.0 - - - - - - -
26/09:30am 21.6 NW 14 16 1013.3 - 0.0 - - - - - - -
26/09:00am 21.4 NW 9 11 1013.1 - 0.0 - - - - - - -
26/08:30am 21.2 NW 7 9 1013.4 - 0.0 - - - - - - -
26/08:00am 20.5 NW 6 8 1013.5 - 0.0 - - - - - - -
26/07:30am 19.7 NW 6 8 1013.4 - 0.0 - - - - - - -
26/07:00am 19.2 NW 9 13 1013.1 - 0.0 - - - - - - -
26/06:30am 18.9 NNW 8 9 1012.8 - 0.0 - - - - - - -
26/06:00am 18.8 N 7 9 1013.0 - 0.0 - - - - - - -
26/05:30am 19.0 NNW 7 8 1013.1 - 0.0 - - - - - - -
26/05:00am 19.5 NNW 8 10 1012.9 - 0.0 - - - - - - -
26/04:30am 19.3 NW 9 11 1012.9 - 0.0 - - - - - - -
26/04:00am 18.8 NNW 6 9 1012.8 - 0.0 - - - - - - -
26/03:30am 18.7 NNW 5 6 1012.9 - 0.0 - - - - - - -
26/03:00am 19.0 NW 6 8 1013.0 - 0.0 - - - - - - -
26/02:30am 19.3 NW 8 10 1012.8 - 0.0 - - - - - - -
26/02:00am 19.4 NW 7 10 1013.0 - 0.0 - - - - - - -
26/01:30am 19.7 NW 9 10 1013.3 - 0.0 - - - - - - -
26/01:00am 19.1 NW 7 9 1013.7 - 0.0 - - - - - - -
26/12:30am 19.6 NW 8 9 1013.9 - 0.0 - - - - - - -
26/12:00am 18.7 NW 6 8 1014.1 - 0.0 - - - - - - -
 
Date/Time
EST
Temp
°C
Wind Pressure Rain since
9am
mm
Weather Cloud Vis
km
Sea
Height
m
Swell
Dir  Spd
kts
Gust
kts
hPa Trend Height
m
Period
s
Dir
25/11:30pm 18.6 WNW 6 7 1014.5 - 0.0 - - - - - - -
25/11:00pm 19.0 WNW 6 7 1014.6 - 0.0 - - - - - - -
25/10:30pm 18.9 WNW 6 7 1014.8 - 0.0 - - - - - - -
25/10:00pm 19.6 WNW 7 8 1015.2 - 0.0 - - - - - - -
25/09:30pm 19.9 WNW 6 7 1015.4 - 0.0 - - - - - - -
25/09:00pm 19.8 NW 6 7 1015.6 - 0.0 - - - - - - -
25/08:30pm 20.3 NW 6 7 1015.7 - 0.0 - - - - - - -
25/08:00pm 20.5 NW 7 9 1015.9 - 0.0 - - - - - - -
25/07:30pm 20.6 NNW 6 8 1015.5 - 0.0 - - - - - - -
25/07:00pm 20.5 NNW 7 9 1015.2 - 0.0 - - - - - - -
25/06:30pm 21.1 NNW 7 9 1015.1 - 0.0 - - - - - - -
25/06:00pm 21.3 N 7 11 1015.1 - 0.0 - - - - - - -
25/05:30pm 21.7 N 12 14 1015.0 - 0.0 - - - - - - -
25/05:00pm 22.2 NNE 12 14 1014.7 - 0.0 - - - - - - -
25/04:30pm 23.2 NNE 12 14 1014.5 - 0.0 - - - - - - -
25/04:00pm 23.7 NNE 11 13 1014.8 - 0.0 - - - - - - -
25/03:30pm 24.4 NNE 10 13 1014.9 - 0.0 - - - - - - -
25/03:00pm 24.2 NE 9 11 1015.0 - 0.0 - - - - - - -
25/02:30pm 24.0 NE 10 11 1015.1 - 0.0 - - - - - - -
25/02:00pm 24.1 NE 9 11 1015.4 - 0.0 - - - - - - -
25/01:30pm 24.7 NE 9 10 1015.8 - 0.0 - - - - - - -
25/01:00pm 24.6 NE 7 9 1016.4 - 0.0 - - - - - - -
25/12:30pm 24.6 ENE 7 9 1016.8 - 0.0 - - - - - - -
25/12:00pm 24.0 ENE 7 8 1017.3 - 0.0 - - - - - - -
25/11:30am 24.0 NE 4 5 1018.0 - 0.0 - - - - - - -
25/11:00am 23.4 ESE 1 4 1018.3 - 0.0 - - - - - - -
25/10:30am 22.7 SE 3 4 1018.8 - 0.0 - - - - - - -
25/10:00am 23.2 SSE 4 5 1019.1 - 0.0 - - - - - - -
25/09:30am 23.4 SSE 4 5 1019.2 - 0.0 - - - - - - -
25/09:00am 22.3 SW 5 7 1019.3 - 0.0 - - - - - - -
25/08:30am 21.2 SW 5 7 1019.4 - 0.0 - - - - - - -
25/08:00am 20.0 SW 5 7 1019.4 - 0.0 - - - - - - -
25/07:30am 18.6 WSW 6 7 1019.3 - 0.0 - - - - - - -
25/07:00am 17.2 WSW 5 6 1018.8 - 0.0 - - - - - - -
25/06:30am 16.4 WSW 6 8 1018.8 - 0.0 - - - - - - -
25/06:00am 16.2 SW 7 9 1018.3 - 0.0 - - - - - - -
25/05:30am 16.4 SW 6 7 1018.1 - 0.0 - - - - - - -
25/05:00am 16.5 SW 7 8 1018.0 - 0.0 - - - - - - -
25/04:30am 16.5 SW 6 7 1018.2 - 0.0 - - - - - - -
25/04:00am 16.6 WSW 6 7 1018.2 - 0.0 - - - - - - -
25/03:30am 16.7 SW 7 8 1018.3 - 0.0 - - - - - - -
25/03:00am 16.7 SW 7 9 1018.4 - 0.0 - - - - - - -
25/02:30am 16.8 SW 6 8 1018.4 - 0.0 - - - - - - -
25/02:00am 16.8 SW 6 8 1018.6 - 0.0 - - - - - - -
25/01:30am 17.1 SW 7 8 1018.8 - 0.0 - - - - - - -
25/01:00am 17.4 SW 6 7 1018.8 - 0.0 - - - - - - -
25/12:30am 17.3 SW 6 8 1019.2 - 0.0 - - - - - - -
25/12:00am 17.6 SW 6 8 1019.8 - 0.0 - - - - - - -
 
Date/Time
EST
Temp
°C
Wind Pressure Rain since
9am
mm
Weather Cloud Vis
km
Sea
Height
m
Swell
Dir  Spd
kts
Gust
kts
hPa Trend Height
m
Period
s
Dir
24/11:30pm 17.8 SW 6 8 1020.0 - 0.0 - - - - - - -
24/11:00pm 18.0 SW 6 7 1020.2 - 0.0 - - - - - - -
24/10:30pm 18.2 SW 6 7 1020.4 - 0.0 - - - - - - -
24/10:00pm 18.4 SW 6 7 1020.6 - 0.0 - - - - - - -
24/09:30pm 18.5 SW 5 6 1020.6 - 0.0 - - - - - - -
24/09:00pm 18.8 SSW 5 7 1020.6 - 0.0 - - - - - - -
24/08:30pm 19.5 SW 6 7 1020.5 - 0.0 - - - - - - -
24/08:00pm 20.8 SE 9 11 1020.4 - 0.0 - - - - - - -
24/07:30pm 21.0 SE 10 14 1020.1 - 0.0 - - - - - - -
24/07:00pm 21.1 SE 11 13 1019.8 - 0.0 - - - - - - -
24/06:30pm 21.1 SE 11 13 1019.6 - 0.0 - - - - - - -
24/06:00pm 21.0 SE 11 13 1019.4 - 0.0 - - - - - - -
24/05:30pm 21.3 SE 12 15 1019.2 - 0.0 - - - - - - -
24/05:00pm 21.3 SE 12 14 1019.1 - 0.0 - - - - - - -
24/04:30pm 21.8 SE 13 15 1019.0 - 0.0 - - - - - - -
24/04:00pm 22.4 SE 12 15 1018.9 - 0.0 - - - - - - -
24/03:30pm 23.5 SE 12 15 1018.7 - 0.0 - - - - - - -
24/03:00pm 23.2 SE 14 16 1018.7 - 0.0 - - - - - - -
24/02:30pm 24.1 SE 13 16 1018.9 - 0.0 - - - - - - -
24/02:00pm 24.4 SE 13 15 1019.1 - 0.0 - - - - - - -
24/01:30pm 24.3 SE 15 17 1019.1 - 0.0 - - - - - - -
24/01:00pm 24.5 SE 15 17 1019.5 - 0.0 - - - - - - -
24/12:30pm 25.0 SE 14 16 1019.7 - 0.0 - - - - - - -
24/12:00pm 25.5 SE 10 13 1020.1 - 0.0 - - - - - - -
24/11:30am 25.0 SSE 11 15 1020.8 - 0.0 - - - - - - -
24/11:00am 25.4 SSE 12 15 1021.2 - 0.0 - - - - - - -
24/10:30am 24.6 SSE 12 15 1021.5 - 0.0 - - - - - - -
24/10:00am 24.1 SSE 12 15 1021.7 - 0.0 - - - - - - -
24/09:30am 24.0 SSE 12 15 1021.7 - 0.0 - - - - - - -
24/09:00am 22.8 SSE 10 14 1021.6 - 0.0 - - - - - - -
24/08:30am 21.8 S 8 14 1021.5 - 0.0 - - - - - - -
24/08:00am 20.7 S 7 9 1021.3 - 0.0 - - - - - - -
24/07:30am 19.1 SSW 6 8 1020.9 - 0.0 - - - - - - -
24/07:00am 17.9 SSW 6 8 1020.8 - 0.0 - - - - - - -
24/06:30am 16.9 SW 5 7 1020.5 - 0.0 - - - - - - -
24/06:00am 16.8 SW 6 7 1020.3 - 0.0 - - - - - - -

Other Formats:

Comma delimited format used in spreadsheet applications
http://www.bom.gov.au/fwo/IDQ60701/IDQ60701.94580.axf

JavaScript Object Notation format (JSON) in row-major order
http://www.bom.gov.au/fwo/IDQ60701/IDQ60701.94580.json